DHK528 EGNX-LIMC
Flight info
| Callsign | DHK528 |
|---|---|
| Flight time | 1h 39m |
| Altitude | 37000 |
| Route | SAPCO UY53 DTY DCT SILVA UM605 BENSU Q70 BIG UL9 KONAN DCT KOK DCT CIV DCT SUTAL DCT GTQ DCT OBORN DCT DEVDI DCT BASGO/N0471F290 Z424 AKASU/N0402F190 Z424 RIXUV |
| Aircraft | B77L/H-SDE1E2E3FGHIJ2J3J4J5M1RWXY/LB1D1 |
Departure
| Time | 2026-05-05 10:11 |
|---|---|
| Airport | East Midlands Airport (EGNX) |
Arrival
| Time | 2026-05-05 11:50 |
|---|---|
| Airport | Milan Malpensa International Airport (LIMC) |
| Time | Latitude | Longitude | Altitude | Speed | Heading |
|---|---|---|---|---|---|
| 2026-05-05 09:30 | 52.82753 | -1.34770 | 315 ft | 0 kts | 179° |
| 2026-05-05 10:00 | 52.82755 | -1.34770 | 315 ft | 1 kts | 179° |
| 2026-05-05 10:00 | 52.82769 | -1.34770 | 316 ft | 2 kts | 180° |
| 2026-05-05 10:00 | 52.82784 | -1.34770 | 316 ft | 2 kts | 178° |
| 2026-05-05 10:00 | 52.82799 | -1.34775 | 316 ft | 2 kts | 155° |
| 2026-05-05 10:01 | 52.82812 | -1.34788 | 316 ft | 2 kts | 137° |
| 2026-05-05 10:01 | 52.82821 | -1.34806 | 317 ft | 2 kts | 119° |
| 2026-05-05 10:01 | 52.82827 | -1.34829 | 317 ft | 2 kts | 101° |
| 2026-05-05 10:01 | 52.82827 | -1.34853 | 316 ft | 1 kts | 85° |
| 2026-05-05 10:02 | 52.82828 | -1.34845 | 317 ft | 3 kts | 89° |
| 2026-05-05 10:02 | 52.82828 | -1.34784 | 317 ft | 4 kts | 88° |
| 2026-05-05 10:02 | 52.82829 | -1.34765 | 317 ft | 0 kts | 88° |
| 2026-05-05 10:04 | 52.82829 | -1.34750 | 317 ft | 3 kts | 88° |
| 2026-05-05 10:04 | 52.82830 | -1.34672 | 317 ft | 8 kts | 88° |
| 2026-05-05 10:05 | 52.82833 | -1.34561 | 315 ft | 10 kts | 88° |
| 2026-05-05 10:05 | 52.82840 | -1.34447 | 314 ft | 8 kts | 65° |
| 2026-05-05 10:05 | 52.82884 | -1.34414 | 315 ft | 6 kts | 18° |
| 2026-05-05 10:05 | 52.82906 | -1.34347 | 315 ft | 9 kts | 84° |
| 2026-05-05 10:06 | 52.82905 | -1.34186 | 312 ft | 18 kts | 90° |
| 2026-05-05 10:06 | 52.82910 | -1.33948 | 312 ft | 21 kts | 89° |
| 2026-05-05 10:06 | 52.82915 | -1.33713 | 312 ft | 19 kts | 88° |
| 2026-05-05 10:06 | 52.82919 | -1.33498 | 312 ft | 18 kts | 89° |
| 2026-05-05 10:07 | 52.82923 | -1.33285 | 308 ft | 19 kts | 88° |
| 2026-05-05 10:07 | 52.82927 | -1.33062 | 303 ft | 19 kts | 88° |
| 2026-05-05 10:07 | 52.82931 | -1.32830 | 301 ft | 19 kts | 88° |
| 2026-05-05 10:07 | 52.82935 | -1.32608 | 298 ft | 19 kts | 88° |
| 2026-05-05 10:08 | 52.82940 | -1.32386 | 297 ft | 19 kts | 88° |
| 2026-05-05 10:08 | 52.82943 | -1.32162 | 295 ft | 19 kts | 88° |
| 2026-05-05 10:08 | 52.82948 | -1.31941 | 292 ft | 19 kts | 88° |
| 2026-05-05 10:08 | 52.82952 | -1.31708 | 290 ft | 21 kts | 88° |
| 2026-05-05 10:09 | 52.82957 | -1.31445 | 291 ft | 23 kts | 89° |
| 2026-05-05 10:09 | 52.82961 | -1.31171 | 294 ft | 24 kts | 88° |
| 2026-05-05 10:09 | 52.82966 | -1.30882 | 293 ft | 22 kts | 89° |
| 2026-05-05 10:09 | 52.83046 | -1.30685 | 292 ft | 23 kts | 12° |
| 2026-05-05 10:10 | 52.83133 | -1.30717 | 294 ft | 8 kts | 287° |
| 2026-05-05 10:10 | 52.83133 | -1.30953 | 296 ft | 47 kts | 268° |
| 2026-05-05 10:10 | 52.83118 | -1.31945 | 298 ft | 123 kts | 269° |
| 2026-05-05 10:10 | 52.83086 | -1.33702 | 400 ft | 176 kts | 270° |
| 2026-05-05 10:11 | 52.83045 | -1.35754 | 1065 ft | 184 kts | 270° |
| 2026-05-05 10:11 | 52.82983 | -1.37812 | 1899 ft | 184 kts | 270° |
| 2026-05-05 10:11 | 52.82638 | -1.39963 | 2269 ft | 205 kts | 242° |
| 2026-05-05 10:11 | 52.81620 | -1.41759 | 2633 ft | 228 kts | 212° |
| 2026-05-05 10:12 | 52.80203 | -1.43143 | 3077 ft | 245 kts | 217° |
| 2026-05-05 10:12 | 52.78866 | -1.44956 | 3582 ft | 261 kts | 224° |
| 2026-05-05 10:12 | 52.77482 | -1.47029 | 4260 ft | 271 kts | 219° |
| 2026-05-05 10:12 | 52.75818 | -1.48377 | 5015 ft | 276 kts | 193° |
| 2026-05-05 10:13 | 52.73904 | -1.48390 | 5791 ft | 278 kts | 167° |
| 2026-05-05 10:13 | 52.72075 | -1.47400 | 6595 ft | 280 kts | 158° |
| 2026-05-05 10:13 | 52.70295 | -1.46207 | 7360 ft | 283 kts | 158° |
| 2026-05-05 10:13 | 52.68471 | -1.44963 | 8098 ft | 287 kts | 158° |
| 2026-05-05 10:14 | 52.66620 | -1.43710 | 8776 ft | 291 kts | 158° |
| 2026-05-05 10:14 | 52.64734 | -1.42454 | 8974 ft | 294 kts | 159° |
| 2026-05-05 10:14 | 52.62831 | -1.41253 | 8994 ft | 292 kts | 160° |
| 2026-05-05 10:14 | 52.60916 | -1.40050 | 9105 ft | 302 kts | 159° |
| 2026-05-05 10:15 | 52.58987 | -1.38831 | 10015 ft | 297 kts | 159° |
| 2026-05-05 10:15 | 52.57068 | -1.37617 | 10590 ft | 305 kts | 159° |
| 2026-05-05 10:15 | 52.55022 | -1.36324 | 10952 ft | 322 kts | 159° |
| 2026-05-05 10:15 | 52.52884 | -1.34954 | 11334 ft | 339 kts | 158° |
| 2026-05-05 10:16 | 52.50679 | -1.33449 | 11733 ft | 355 kts | 158° |
| 2026-05-05 10:16 | 52.48359 | -1.31857 | 12187 ft | 370 kts | 158° |
| 2026-05-05 10:16 | 52.45947 | -1.30212 | 12665 ft | 385 kts | 158° |
| 2026-05-05 10:16 | 52.43447 | -1.28514 | 13321 ft | 395 kts | 158° |
| 2026-05-05 10:17 | 52.40884 | -1.26776 | 14165 ft | 401 kts | 158° |
| 2026-05-05 10:17 | 52.38321 | -1.25041 | 15191 ft | 403 kts | 158° |
| 2026-05-05 10:17 | 52.35745 | -1.23299 | 16313 ft | 403 kts | 159° |
| 2026-05-05 10:17 | 52.33161 | -1.21555 | 17352 ft | 405 kts | 159° |
| 2026-05-05 10:18 | 52.30567 | -1.19807 | 18304 ft | 409 kts | 159° |
| 2026-05-05 10:18 | 52.27940 | -1.18040 | 19208 ft | 413 kts | 159° |
| 2026-05-05 10:18 | 52.25264 | -1.16241 | 20041 ft | 419 kts | 159° |
| 2026-05-05 10:18 | 52.22575 | -1.14436 | 20886 ft | 424 kts | 159° |
| 2026-05-05 10:19 | 52.19854 | -1.12613 | 21692 ft | 429 kts | 159° |
| 2026-05-05 10:19 | 52.17018 | -1.11097 | 22456 ft | 433 kts | 167° |
| 2026-05-05 10:19 | 52.14059 | -1.10066 | 23219 ft | 437 kts | 170° |
| 2026-05-05 10:19 | 52.11095 | -1.09096 | 23980 ft | 442 kts | 170° |
| 2026-05-05 10:20 | 52.08082 | -1.08115 | 24736 ft | 446 kts | 170° |
| 2026-05-05 10:20 | 52.05037 | -1.07123 | 25472 ft | 450 kts | 170° |
| 2026-05-05 10:20 | 52.01960 | -1.06121 | 26150 ft | 454 kts | 170° |
| 2026-05-05 10:20 | 51.98875 | -1.05118 | 26820 ft | 459 kts | 170° |
| 2026-05-05 10:21 | 51.95754 | -1.04103 | 27509 ft | 463 kts | 170° |
| 2026-05-05 10:21 | 51.92571 | -1.03070 | 28194 ft | 467 kts | 170° |
| 2026-05-05 10:21 | 51.89398 | -1.02042 | 28891 ft | 471 kts | 170° |
| 2026-05-05 10:21 | 51.86184 | -1.01001 | 29661 ft | 473 kts | 170° |
| 2026-05-05 10:22 | 51.82993 | -0.99968 | 30723 ft | 468 kts | 170° |
| 2026-05-05 10:22 | 51.79821 | -0.98943 | 31763 ft | 461 kts | 170° |
| 2026-05-05 10:22 | 51.76671 | -0.97926 | 32605 ft | 457 kts | 169° |
| 2026-05-05 10:22 | 51.73551 | -0.96922 | 33221 ft | 457 kts | 169° |
| 2026-05-05 10:23 | 51.70407 | -0.95911 | 33705 ft | 459 kts | 169° |
| 2026-05-05 10:23 | 51.67250 | -0.94738 | 34183 ft | 461 kts | 163° |
| 2026-05-05 10:23 | 51.64258 | -0.92894 | 34704 ft | 462 kts | 155° |
| 2026-05-05 10:23 | 51.61470 | -0.90341 | 35133 ft | 462 kts | 146° |
| 2026-05-05 10:24 | 51.58953 | -0.87166 | 35510 ft | 462 kts | 138° |
| 2026-05-05 10:24 | 51.56735 | -0.83414 | 35834 ft | 463 kts | 130° |
| 2026-05-05 10:24 | 51.54878 | -0.79183 | 36099 ft | 467 kts | 121° |
| 2026-05-05 10:24 | 51.53424 | -0.74544 | 36766 ft | 469 kts | 113° |
| 2026-05-05 10:25 | 51.52382 | -0.69578 | 36947 ft | 474 kts | 106° |
| 2026-05-05 10:25 | 51.51513 | -0.64442 | 36974 ft | 483 kts | 106° |
| 2026-05-05 10:25 | 51.49766 | -0.53966 | 36978 ft | 490 kts | 105° |
| 2026-05-05 10:26 | 51.48002 | -0.43444 | 36985 ft | 489 kts | 106° |
| 2026-05-05 10:26 | 51.46228 | -0.32930 | 36983 ft | 489 kts | 107° |
| 2026-05-05 10:27 | 51.44457 | -0.22490 | 36978 ft | 489 kts | 107° |
| 2026-05-05 10:27 | 51.42674 | -0.11969 | 36621 ft | 489 kts | 104° |
| 2026-05-05 10:28 | 51.42029 | -0.06619 | 36797 ft | 491 kts | 101° |
| 2026-05-05 10:28 | 51.41446 | -0.01238 | 36968 ft | 495 kts | 101° |
| 2026-05-05 10:28 | 51.40277 | 0.09544 | 37277 ft | 493 kts | 101° |
| 2026-05-05 10:29 | 51.39691 | 0.14914 | 36971 ft | 492 kts | 101° |
| 2026-05-05 10:29 | 51.39098 | 0.20329 | 36976 ft | 493 kts | 101° |
| 2026-05-05 10:29 | 51.37914 | 0.31059 | 36974 ft | 496 kts | 101° |
| 2026-05-05 10:30 | 51.36693 | 0.42027 | 36970 ft | 499 kts | 101° |
| 2026-05-05 10:30 | 51.35474 | 0.52878 | 36959 ft | 500 kts | 101° |
| 2026-05-05 10:31 | 51.34231 | 0.63852 | 36972 ft | 500 kts | 101° |
| 2026-05-05 10:31 | 51.32989 | 0.74717 | 36969 ft | 501 kts | 102° |
| 2026-05-05 10:32 | 51.31735 | 0.85598 | 36961 ft | 500 kts | 102° |
| 2026-05-05 10:32 | 51.30460 | 0.96564 | 36961 ft | 506 kts | 102° |
| 2026-05-05 10:33 | 51.29166 | 1.07590 | 36959 ft | 506 kts | 102° |
| 2026-05-05 10:33 | 51.27863 | 1.18609 | 36952 ft | 506 kts | 102° |
| 2026-05-05 10:34 | 51.26550 | 1.29619 | 36948 ft | 507 kts | 102° |
| 2026-05-05 10:34 | 51.25228 | 1.40614 | 36954 ft | 507 kts | 102° |
| 2026-05-05 10:35 | 51.23898 | 1.51581 | 36948 ft | 507 kts | 102° |
| 2026-05-05 10:35 | 51.22549 | 1.62607 | 36950 ft | 507 kts | 102° |
| 2026-05-05 10:36 | 51.21191 | 1.73628 | 36954 ft | 507 kts | 103° |
| 2026-05-05 10:36 | 51.19823 | 1.84629 | 36953 ft | 506 kts | 103° |
| 2026-05-05 10:37 | 51.18436 | 1.95696 | 36958 ft | 507 kts | 103° |
| 2026-05-05 10:37 | 51.17050 | 2.06665 | 36954 ft | 507 kts | 103° |
| 2026-05-05 10:38 | 51.15654 | 2.17629 | 36948 ft | 507 kts | 104° |
| 2026-05-05 10:38 | 51.14248 | 2.28584 | 36944 ft | 507 kts | 104° |
| 2026-05-05 10:39 | 51.12829 | 2.39552 | 36940 ft | 507 kts | 104° |
| 2026-05-05 10:39 | 51.11411 | 2.50433 | 36941 ft | 507 kts | 104° |
| 2026-05-05 10:40 | 51.09819 | 2.61300 | 36935 ft | 505 kts | 111° |
| 2026-05-05 10:40 | 51.06721 | 2.71075 | 36932 ft | 486 kts | 126° |
| 2026-05-05 10:41 | 51.02992 | 2.79926 | 36920 ft | 479 kts | 127° |
| 2026-05-05 10:41 | 50.99244 | 2.88665 | 36919 ft | 478 kts | 127° |
| 2026-05-05 10:42 | 50.93623 | 3.01631 | 36913 ft | 478 kts | 128° |
| 2026-05-05 10:43 | 50.89835 | 3.10302 | 36903 ft | 480 kts | 128° |
| 2026-05-05 10:43 | 50.86037 | 3.18959 | 36907 ft | 479 kts | 128° |
| 2026-05-05 10:44 | 50.82246 | 3.27567 | 36912 ft | 479 kts | 128° |
| 2026-05-05 10:44 | 50.78427 | 3.36206 | 36905 ft | 478 kts | 128° |
| 2026-05-05 10:45 | 50.74639 | 3.44744 | 36905 ft | 478 kts | 128° |
| 2026-05-05 10:45 | 50.70833 | 3.53296 | 36907 ft | 478 kts | 128° |
| 2026-05-05 10:46 | 50.67022 | 3.61830 | 36897 ft | 477 kts | 128° |
| 2026-05-05 10:46 | 50.63203 | 3.70352 | 36887 ft | 477 kts | 128° |
| 2026-05-05 10:47 | 50.59373 | 3.78874 | 36880 ft | 477 kts | 128° |
| 2026-05-05 10:47 | 50.55615 | 3.87401 | 36875 ft | 478 kts | 126° |
| 2026-05-05 10:48 | 50.52021 | 3.96167 | 36871 ft | 477 kts | 126° |
| 2026-05-05 10:48 | 50.48423 | 4.04892 | 36881 ft | 477 kts | 126° |
| 2026-05-05 10:49 | 50.44835 | 4.13543 | 36882 ft | 476 kts | 126° |
| 2026-05-05 10:49 | 50.41201 | 4.22260 | 36879 ft | 477 kts | 126° |
| 2026-05-05 10:50 | 50.37586 | 4.30898 | 36880 ft | 477 kts | 126° |
| 2026-05-05 10:50 | 50.33929 | 4.39605 | 36880 ft | 475 kts | 127° |
| 2026-05-05 10:51 | 50.30279 | 4.48263 | 36885 ft | 477 kts | 127° |
| 2026-05-05 10:51 | 50.26632 | 4.56886 | 36879 ft | 475 kts | 127° |
| 2026-05-05 10:52 | 50.22981 | 4.65488 | 36872 ft | 476 kts | 127° |
| 2026-05-05 10:52 | 50.19347 | 4.74023 | 36868 ft | 475 kts | 127° |
| 2026-05-05 10:53 | 50.15679 | 4.82610 | 36864 ft | 474 kts | 127° |
| 2026-05-05 10:53 | 50.12040 | 4.91101 | 36862 ft | 475 kts | 127° |
| 2026-05-05 10:54 | 50.08383 | 4.99605 | 36859 ft | 473 kts | 127° |
| 2026-05-05 10:54 | 50.04718 | 5.08101 | 36864 ft | 473 kts | 127° |
| 2026-05-05 10:55 | 50.01065 | 5.16544 | 36862 ft | 473 kts | 128° |
| 2026-05-05 10:55 | 49.97396 | 5.24995 | 36855 ft | 472 kts | 128° |
| 2026-05-05 10:56 | 49.93731 | 5.33409 | 36849 ft | 473 kts | 128° |
| 2026-05-05 10:56 | 49.90055 | 5.41822 | 36848 ft | 472 kts | 127° |
| 2026-05-05 10:57 | 49.86369 | 5.50233 | 36847 ft | 473 kts | 127° |
| 2026-05-05 10:57 | 49.82688 | 5.58606 | 36849 ft | 471 kts | 128° |
| 2026-05-05 10:58 | 49.78997 | 5.66973 | 36855 ft | 472 kts | 128° |
| 2026-05-05 10:58 | 49.75313 | 5.75299 | 36857 ft | 471 kts | 128° |
| 2026-05-05 10:59 | 49.71604 | 5.83655 | 36855 ft | 472 kts | 128° |
| 2026-05-05 10:59 | 49.67894 | 5.91988 | 36867 ft | 471 kts | 128° |
| 2026-05-05 11:00 | 49.64214 | 6.00227 | 36856 ft | 471 kts | 128° |
| 2026-05-05 11:00 | 49.60484 | 6.08552 | 36863 ft | 470 kts | 128° |
| 2026-05-05 11:01 | 49.56784 | 6.16784 | 36868 ft | 472 kts | 128° |
| 2026-05-05 11:01 | 49.53059 | 6.25048 | 36865 ft | 470 kts | 128° |
| 2026-05-05 11:02 | 49.49259 | 6.33184 | 36864 ft | 467 kts | 134° |
| 2026-05-05 11:02 | 49.44462 | 6.39769 | 36862 ft | 462 kts | 149° |
| 2026-05-05 11:03 | 49.38822 | 6.44265 | 36859 ft | 457 kts | 157° |
| 2026-05-05 11:03 | 49.33059 | 6.48302 | 36866 ft | 458 kts | 158° |
| 2026-05-05 11:04 | 49.27255 | 6.52301 | 36855 ft | 457 kts | 158° |
| 2026-05-05 11:04 | 49.21479 | 6.56240 | 36863 ft | 456 kts | 158° |
| 2026-05-05 11:05 | 49.15662 | 6.60181 | 36862 ft | 456 kts | 158° |
| 2026-05-05 11:05 | 49.09891 | 6.64073 | 36855 ft | 456 kts | 158° |
| 2026-05-05 11:06 | 49.04105 | 6.67961 | 36872 ft | 455 kts | 159° |
| 2026-05-05 11:06 | 48.98358 | 6.71945 | 36868 ft | 457 kts | 153° |
| 2026-05-05 11:07 | 48.92920 | 6.76949 | 36881 ft | 459 kts | 151° |
| 2026-05-05 11:07 | 48.87488 | 6.82032 | 36878 ft | 459 kts | 151° |
| 2026-05-05 11:08 | 48.82040 | 6.87112 | 36883 ft | 460 kts | 151° |
| 2026-05-05 11:08 | 48.76635 | 6.92135 | 36874 ft | 458 kts | 151° |
| 2026-05-05 11:09 | 48.71169 | 6.97199 | 36858 ft | 459 kts | 151° |
| 2026-05-05 11:09 | 48.65754 | 7.02203 | 36870 ft | 460 kts | 151° |
| 2026-05-05 11:10 | 48.60300 | 7.07228 | 36866 ft | 458 kts | 151° |
| 2026-05-05 11:10 | 48.54873 | 7.12216 | 36870 ft | 460 kts | 151° |
| 2026-05-05 11:11 | 48.49423 | 7.17213 | 36866 ft | 458 kts | 151° |
| 2026-05-05 11:11 | 48.43697 | 7.21352 | 36866 ft | 458 kts | 163° |
| 2026-05-05 11:12 | 48.37653 | 7.24309 | 36872 ft | 457 kts | 164° |
| 2026-05-05 11:12 | 48.31607 | 7.27232 | 36868 ft | 458 kts | 163° |
| 2026-05-05 11:13 | 48.25608 | 7.30126 | 36878 ft | 457 kts | 164° |
| 2026-05-05 11:13 | 48.19525 | 7.33052 | 36876 ft | 457 kts | 164° |
| 2026-05-05 11:14 | 48.13491 | 7.35948 | 36886 ft | 458 kts | 164° |
| 2026-05-05 11:14 | 48.07470 | 7.38830 | 36872 ft | 456 kts | 164° |
| 2026-05-05 11:15 | 48.01404 | 7.41727 | 36870 ft | 459 kts | 163° |
| 2026-05-05 11:15 | 47.95318 | 7.44627 | 36871 ft | 457 kts | 164° |
| 2026-05-05 11:16 | 47.89270 | 7.47500 | 36856 ft | 460 kts | 164° |
| 2026-05-05 11:16 | 47.83209 | 7.50373 | 36876 ft | 458 kts | 164° |
| 2026-05-05 11:17 | 47.77142 | 7.53242 | 36879 ft | 459 kts | 164° |
| 2026-05-05 11:17 | 47.71155 | 7.56526 | 36888 ft | 461 kts | 159° |
| 2026-05-05 11:18 | 47.65286 | 7.60341 | 36879 ft | 460 kts | 159° |
| 2026-05-05 11:18 | 47.59424 | 7.64141 | 36887 ft | 462 kts | 159° |
| 2026-05-05 11:19 | 47.53551 | 7.67935 | 36886 ft | 461 kts | 159° |
| 2026-05-05 11:19 | 47.47615 | 7.71757 | 36889 ft | 463 kts | 160° |
| 2026-05-05 11:20 | 47.41726 | 7.75540 | 36891 ft | 463 kts | 160° |
| 2026-05-05 11:20 | 47.35848 | 7.79306 | 36883 ft | 462 kts | 160° |
| 2026-05-05 11:21 | 47.29972 | 7.83060 | 36891 ft | 464 kts | 160° |
| 2026-05-05 11:21 | 47.24060 | 7.86829 | 36876 ft | 462 kts | 160° |
| 2026-05-05 11:22 | 47.18130 | 7.90599 | 36898 ft | 465 kts | 160° |
| 2026-05-05 11:22 | 47.12210 | 7.94354 | 36875 ft | 463 kts | 160° |
| 2026-05-05 11:23 | 47.06325 | 7.98077 | 36885 ft | 465 kts | 160° |
| 2026-05-05 11:23 | 47.00369 | 8.01836 | 36905 ft | 465 kts | 160° |
| 2026-05-05 11:24 | 46.94474 | 8.05550 | 36526 ft | 461 kts | 160° |
| 2026-05-05 11:24 | 46.91514 | 8.07410 | 35801 ft | 463 kts | 161° |
| 2026-05-05 11:24 | 46.88562 | 8.09263 | 35177 ft | 462 kts | 160° |
| 2026-05-05 11:24 | 46.85633 | 8.11099 | 34502 ft | 464 kts | 161° |
| 2026-05-05 11:25 | 46.82688 | 8.12943 | 33696 ft | 465 kts | 160° |
| 2026-05-05 11:25 | 46.79729 | 8.14793 | 32905 ft | 465 kts | 160° |
| 2026-05-05 11:25 | 46.76756 | 8.16651 | 32104 ft | 464 kts | 160° |
| 2026-05-05 11:25 | 46.73785 | 8.18505 | 31306 ft | 463 kts | 159° |
| 2026-05-05 11:26 | 46.70843 | 8.20339 | 30572 ft | 461 kts | 159° |
| 2026-05-05 11:26 | 46.67935 | 8.22151 | 30120 ft | 452 kts | 159° |
| 2026-05-05 11:26 | 46.65093 | 8.23920 | 29675 ft | 443 kts | 159° |
| 2026-05-05 11:26 | 46.62283 | 8.25666 | 29217 ft | 436 kts | 159° |
| 2026-05-05 11:27 | 46.59538 | 8.27369 | 28739 ft | 429 kts | 160° |
| 2026-05-05 11:27 | 46.56799 | 8.29067 | 28256 ft | 422 kts | 160° |
| 2026-05-05 11:27 | 46.54124 | 8.30723 | 27770 ft | 416 kts | 160° |
| 2026-05-05 11:27 | 46.51454 | 8.32371 | 27300 ft | 427 kts | 160° |
| 2026-05-05 11:28 | 46.48692 | 8.34075 | 26802 ft | 430 kts | 160° |
| 2026-05-05 11:28 | 46.45986 | 8.35745 | 26293 ft | 429 kts | 160° |
| 2026-05-05 11:28 | 46.43235 | 8.37441 | 25774 ft | 426 kts | 159° |
| 2026-05-05 11:28 | 46.40545 | 8.39098 | 25260 ft | 423 kts | 159° |
| 2026-05-05 11:29 | 46.37819 | 8.40774 | 24737 ft | 420 kts | 159° |
| 2026-05-05 11:29 | 46.35143 | 8.42418 | 24225 ft | 418 kts | 160° |
| 2026-05-05 11:29 | 46.32514 | 8.44032 | 23721 ft | 415 kts | 160° |
| 2026-05-05 11:29 | 46.29882 | 8.45646 | 23212 ft | 412 kts | 160° |
| 2026-05-05 11:30 | 46.27161 | 8.46947 | 22690 ft | 405 kts | 169° |
| 2026-05-05 11:30 | 46.24424 | 8.47592 | 22179 ft | 399 kts | 175° |
| 2026-05-05 11:30 | 46.21675 | 8.48007 | 21670 ft | 395 kts | 176° |
| 2026-05-05 11:30 | 46.18978 | 8.48399 | 21167 ft | 393 kts | 176° |
| 2026-05-05 11:31 | 46.16267 | 8.48791 | 20652 ft | 392 kts | 176° |
| 2026-05-05 11:31 | 46.13562 | 8.49180 | 20137 ft | 391 kts | 176° |
| 2026-05-05 11:31 | 46.10861 | 8.49800 | 19629 ft | 390 kts | 168° |
| 2026-05-05 11:31 | 46.08290 | 8.51000 | 19114 ft | 391 kts | 162° |
| 2026-05-05 11:32 | 46.05748 | 8.52366 | 18588 ft | 390 kts | 162° |
| 2026-05-05 11:32 | 46.03228 | 8.53726 | 18048 ft | 388 kts | 161° |
| 2026-05-05 11:32 | 46.00715 | 8.55081 | 17530 ft | 385 kts | 161° |
| 2026-05-05 11:32 | 45.98218 | 8.56426 | 17032 ft | 382 kts | 161° |
| 2026-05-05 11:33 | 45.95756 | 8.57750 | 16531 ft | 379 kts | 161° |
| 2026-05-05 11:33 | 45.93307 | 8.59065 | 15981 ft | 375 kts | 161° |
| 2026-05-05 11:33 | 45.90886 | 8.60434 | 15471 ft | 372 kts | 156° |
| 2026-05-05 11:33 | 45.88656 | 8.62313 | 14994 ft | 372 kts | 146° |
| 2026-05-05 11:34 | 45.86641 | 8.64577 | 14440 ft | 372 kts | 143° |
| 2026-05-05 11:34 | 45.84630 | 8.66910 | 13970 ft | 369 kts | 143° |
| 2026-05-05 11:34 | 45.82668 | 8.69186 | 13417 ft | 366 kts | 143° |
| 2026-05-05 11:34 | 45.80687 | 8.71483 | 12882 ft | 363 kts | 143° |
| 2026-05-05 11:35 | 45.78756 | 8.73719 | 12419 ft | 359 kts | 143° |
| 2026-05-05 11:35 | 45.76808 | 8.75935 | 12031 ft | 350 kts | 147° |
| 2026-05-05 11:35 | 45.74778 | 8.77675 | 11915 ft | 335 kts | 153° |
| 2026-05-05 11:35 | 45.72787 | 8.79223 | 11755 ft | 322 kts | 153° |
| 2026-05-05 11:36 | 45.70854 | 8.80709 | 11572 ft | 305 kts | 153° |
| 2026-05-05 11:36 | 45.69035 | 8.82107 | 11468 ft | 288 kts | 154° |
| 2026-05-05 11:36 | 45.67333 | 8.83414 | 11361 ft | 272 kts | 154° |
| 2026-05-05 11:36 | 45.65715 | 8.84656 | 11265 ft | 261 kts | 154° |
| 2026-05-05 11:37 | 45.64136 | 8.85868 | 11147 ft | 250 kts | 154° |
| 2026-05-05 11:37 | 45.62628 | 8.87023 | 11040 ft | 240 kts | 154° |
| 2026-05-05 11:37 | 45.61036 | 8.87866 | 10937 ft | 251 kts | 168° |
| 2026-05-05 11:37 | 45.59311 | 8.88373 | 10606 ft | 255 kts | 170° |
| 2026-05-05 11:38 | 45.57591 | 8.88834 | 10266 ft | 254 kts | 171° |
| 2026-05-05 11:38 | 45.55854 | 8.89302 | 9952 ft | 252 kts | 170° |
| 2026-05-05 11:38 | 45.54132 | 8.89769 | 9634 ft | 250 kts | 170° |
| 2026-05-05 11:38 | 45.52429 | 8.90232 | 9327 ft | 248 kts | 170° |
| 2026-05-05 11:39 | 45.50758 | 8.90686 | 9034 ft | 246 kts | 170° |
| 2026-05-05 11:39 | 45.49077 | 8.91143 | 8688 ft | 247 kts | 170° |
| 2026-05-05 11:39 | 45.47367 | 8.91608 | 8209 ft | 253 kts | 170° |
| 2026-05-05 11:39 | 45.45645 | 8.92076 | 7727 ft | 256 kts | 169° |
| 2026-05-05 11:40 | 45.43908 | 8.92549 | 7272 ft | 254 kts | 169° |
| 2026-05-05 11:40 | 45.42150 | 8.93026 | 6827 ft | 258 kts | 169° |
| 2026-05-05 11:40 | 45.40390 | 8.93504 | 6358 ft | 263 kts | 169° |
| 2026-05-05 11:40 | 45.38571 | 8.93997 | 5876 ft | 267 kts | 169° |
| 2026-05-05 11:41 | 45.36786 | 8.94481 | 5653 ft | 256 kts | 169° |
| 2026-05-05 11:41 | 45.35058 | 8.94949 | 5210 ft | 253 kts | 169° |
| 2026-05-05 11:41 | 45.33292 | 8.95299 | 4574 ft | 258 kts | 183° |
| 2026-05-05 11:41 | 45.31594 | 8.94603 | 4022 ft | 257 kts | 213° |
| 2026-05-05 11:42 | 45.30407 | 8.92835 | 3926 ft | 245 kts | 242° |
| 2026-05-05 11:42 | 45.29890 | 8.90584 | 3950 ft | 239 kts | 258° |
| 2026-05-05 11:42 | 45.29578 | 8.88278 | 3956 ft | 236 kts | 259° |
| 2026-05-05 11:42 | 45.29331 | 8.85963 | 3945 ft | 237 kts | 271° |
| 2026-05-05 11:43 | 45.29734 | 8.83744 | 3945 ft | 236 kts | 302° |
| 2026-05-05 11:43 | 45.30876 | 8.82089 | 3943 ft | 236 kts | 333° |
| 2026-05-05 11:43 | 45.32388 | 8.81301 | 3960 ft | 231 kts | 347° |
| 2026-05-05 11:43 | 45.33926 | 8.80822 | 3961 ft | 222 kts | 350° |
| 2026-05-05 11:44 | 45.35416 | 8.80414 | 3966 ft | 213 kts | 350° |
| 2026-05-05 11:44 | 45.36850 | 8.80025 | 3969 ft | 205 kts | 350° |
| 2026-05-05 11:44 | 45.38221 | 8.79717 | 3846 ft | 201 kts | 354° |
| 2026-05-05 11:44 | 45.39611 | 8.79468 | 3579 ft | 200 kts | 354° |
| 2026-05-05 11:45 | 45.40980 | 8.79206 | 3338 ft | 199 kts | 354° |
| 2026-05-05 11:45 | 45.42352 | 8.78937 | 3134 ft | 193 kts | 353° |
| 2026-05-05 11:45 | 45.43641 | 8.78683 | 2994 ft | 185 kts | 353° |
| 2026-05-05 11:45 | 45.44908 | 8.78342 | 2973 ft | 182 kts | 350° |
| 2026-05-05 11:46 | 45.46128 | 8.77994 | 2971 ft | 177 kts | 351° |
| 2026-05-05 11:46 | 45.47340 | 8.77661 | 2972 ft | 175 kts | 351° |
| 2026-05-05 11:46 | 45.48535 | 8.77336 | 2971 ft | 175 kts | 351° |
| 2026-05-05 11:46 | 45.49729 | 8.77008 | 2973 ft | 176 kts | 351° |
| 2026-05-05 11:47 | 45.50944 | 8.76669 | 2834 ft | 178 kts | 351° |
| 2026-05-05 11:47 | 45.52147 | 8.76337 | 2604 ft | 174 kts | 351° |
| 2026-05-05 11:47 | 45.53313 | 8.76016 | 2377 ft | 170 kts | 351° |
| 2026-05-05 11:47 | 45.54455 | 8.75703 | 2157 ft | 163 kts | 351° |
| 2026-05-05 11:48 | 45.56562 | 8.75123 | 1738 ft | 147 kts | 349° |
| 2026-05-05 11:48 | 45.57563 | 8.74848 | 1546 ft | 145 kts | 350° |
| 2026-05-05 11:48 | 45.58547 | 8.74583 | 1349 ft | 143 kts | 351° |
| 2026-05-05 11:49 | 45.59522 | 8.74316 | 1139 ft | 141 kts | 349° |
| 2026-05-05 11:49 | 45.60481 | 8.74047 | 962 ft | 140 kts | 351° |
| 2026-05-05 11:49 | 45.61432 | 8.73789 | 792 ft | 140 kts | 350° |
| 2026-05-05 11:49 | 45.62358 | 8.73540 | 719 ft | 124 kts | 349° |
| 2026-05-05 11:50 | 45.63090 | 8.73333 | 732 ft | 93 kts | 348° |
| 2026-05-05 11:50 | 45.63670 | 8.73175 | 747 ft | 76 kts | 350° |
| 2026-05-05 11:50 | 45.64056 | 8.73066 | 759 ft | 44 kts | 349° |
| 2026-05-05 11:50 | 45.64248 | 8.72994 | 765 ft | 19 kts | 330° |
| 2026-05-05 11:51 | 45.64328 | 8.72866 | 769 ft | 15 kts | 304° |
| 2026-05-05 11:51 | 45.64382 | 8.72753 | 772 ft | 12 kts | 304° |
| 2026-05-05 11:51 | 45.64429 | 8.72683 | 774 ft | 8 kts | 329° |
| 2026-05-05 11:51 | 45.64474 | 8.72660 | 775 ft | 5 kts | 345° |
| 2026-05-05 11:52 | 45.64513 | 8.72647 | 777 ft | 7 kts | 347° |
| 2026-05-05 11:52 | 45.64575 | 8.72629 | 778 ft | 10 kts | 350° |
| 2026-05-05 11:52 | 45.64641 | 8.72612 | 779 ft | 8 kts | 350° |
| 2026-05-05 11:52 | 45.64697 | 8.72597 | 780 ft | 7 kts | 348° |
| 2026-05-05 11:53 | 45.64745 | 8.72583 | 781 ft | 6 kts | 348° |
| 2026-05-05 11:53 | 45.64780 | 8.72570 | 782 ft | 3 kts | 337° |
| 2026-05-05 11:53 | 45.64788 | 8.72553 | 782 ft | 2 kts | 279° |
| 2026-05-05 11:53 | 45.64787 | 8.72489 | 782 ft | 4 kts | 259° |
| 2026-05-05 11:54 | 45.64786 | 8.72477 | 782 ft | 0 kts | 261° |